Terminal Aerodrome Forecast
Issued by NWS

Home | Current Version | Previous Version | Text Only | Print | Product List | Glossary On
Versions: 1 2 3 4 5 6 7 8 9 10 11 12 13 14
000
FTUS45 KGJT 262343
TAFDRO
TAF
KDRO 262343Z 2700/2724 26008KT P6SM SCT110
     FM270500 02004KT P6SM SCT120
     FM271800 25005KT P6SM VCSH BKN150
     FM272300 32008KT P6SM VCSH BKN150=

USA.gov is the U.S. government's official web portal to all federal, state and local government web resources and services.